sensor_id;sensor_type;location;lat;lon;timestamp;pressure;altitude;pressure_sealevel;temperature;humidity
78671;BME280;68277;52.724;6.516;2023-08-06T00:02:23;100543.56;;;13.97;100.00
78671;BME280;68277;52.724;6.516;2023-08-06T00:04:48;100595.59;;;14.25;100.00
78671;BME280;68277;52.724;6.516;2023-08-06T00:07:14;100575.69;;;14.14;100.00
78671;BME280;68277;52.724;6.516;2023-08-06T00:09:39;100583.44;;;14.20;100.00
78671;BME280;68277;52.724;6.516;2023-08-06T00:12:05;100560.88;;;14.07;100.00
78671;BME280;68277;52.724;6.516;2023-08-06T00:14:30;100567.19;;;14.04;100.00
78671;BME280;68277;52.724;6.516;2023-08-06T00:16:56;100541.09;;;13.92;100.00
78671;BME280;68277;52.724;6.516;2023-08-06T00:19:21;100572.22;;;14.12;100.00
78671;BME280;68277;52.724;6.516;2023-08-06T00:21:47;100550.75;;;13.95;100.00
78671;BME280;68277;52.724;6.516;2023-08-06T00:24:12;100519.47;;;13.80;100.00
78671;BME280;68277;52.724;6.516;2023-08-06T00:26:38;100563.56;;;14.07;100.00
78671;BME280;68277;52.724;6.516;2023-08-06T00:29:03;100551.63;;;13.95;100.00
78671;BME280;68277;52.724;6.516;2023-08-06T00:31:29;100540.38;;;13.89;100.00
78671;BME280;68277;52.724;6.516;2023-08-06T00:33:54;100553.22;;;13.99;100.00
78671;BME280;68277;52.724;6.516;2023-08-06T00:36:20;100542.75;;;13.95;100.00
78671;BME280;68277;52.724;6.516;2023-08-06T00:38:45;100570.72;;;14.05;100.00
78671;BME280;68277;52.724;6.516;2023-08-06T00:41:11;100571.03;;;13.97;100.00
78671;BME280;68277;52.724;6.516;2023-08-06T00:43:36;100552.06;;;13.85;100.00
78671;BME280;68277;52.724;6.516;2023-08-06T00:46:02;100581.69;;;13.97;100.00
78671;BME280;68277;52.724;6.516;2023-08-06T00:48:31;100564.38;;;13.87;100.00
78671;BME280;68277;52.724;6.516;2023-08-06T00:50:56;100551.75;;;13.70;100.00
78671;BME280;68277;52.724;6.516;2023-08-06T00:53:22;100545.59;;;13.68;100.00
78671;BME280;68277;52.724;6.516;2023-08-06T00:55:48;100585.66;;;13.87;100.00
78671;BME280;68277;52.724;6.516;2023-08-06T00:58:14;100572.78;;;13.77;100.00
78671;BME280;68277;52.724;6.516;2023-08-06T01:00:40;100550.06;;;13.68;100.00
78671;BME280;68277;52.724;6.516;2023-08-06T01:03:06;100577.09;;;13.79;100.00
78671;BME280;68277;52.724;6.516;2023-08-06T01:05:32;100562.50;;;13.67;100.00
78671;BME280;68277;52.724;6.516;2023-08-06T01:14:07;100562.53;;;13.66;100.00
78671;BME280;68277;52.724;6.516;2023-08-06T01:16:35;100587.66;;;13.81;100.00
78671;BME280;68277;52.724;6.516;2023-08-06T01:19:00;100561.63;;;13.67;100.00
78671;BME280;68277;52.724;6.516;2023-08-06T01:21:26;100528.78;;;13.46;100.00
78671;BME280;68277;52.724;6.516;2023-08-06T01:23:51;100539.97;;;13.54;100.00
78671;BME280;68277;52.724;6.516;2023-08-06T01:27:03;100565.97;;;13.69;100.00
78671;BME280;68277;52.724;6.516;2023-08-06T01:31:59;100542.63;;;13.54;100.00
78671;BME280;68277;52.724;6.516;2023-08-06T01:34:28;100539.78;;;13.59;100.00
78671;BME280;68277;52.724;6.516;2023-08-06T01:36:54;100537.13;;;13.59;100.00
78671;BME280;68277;52.724;6.516;2023-08-06T01:39:19;100548.44;;;13.64;100.00
78671;BME280;68277;52.724;6.516;2023-08-06T01:41:48;100573.56;;;13.79;100.00
78671;BME280;68277;52.724;6.516;2023-08-06T01:44:14;100543.25;;;13.61;100.00
78671;BME280;68277;52.724;6.516;2023-08-06T01:46:40;100572.16;;;13.70;100.00
78671;BME280;68277;52.724;6.516;2023-08-06T01:49:06;100561.75;;;13.64;100.00
78671;BME280;68277;52.724;6.516;2023-08-06T01:51:31;100541.59;;;13.58;100.00
78671;BME280;68277;52.724;6.516;2023-08-06T01:53:57;100553.66;;;13.67;100.00
78671;BME280;68277;52.724;6.516;2023-08-06T01:56:22;100569.25;;;13.76;100.00
78671;BME280;68277;52.724;6.516;2023-08-06T01:58:48;100534.47;;;13.59;100.00
78671;BME280;68277;52.724;6.516;2023-08-06T02:01:13;100550.06;;;13.68;100.00
78671;BME280;68277;52.724;6.516;2023-08-06T02:03:39;100524.06;;;13.53;100.00
78671;BME280;68277;52.724;6.516;2023-08-06T02:06:04;100512.53;;;13.54;100.00
78671;BME280;68277;52.724;6.516;2023-08-06T02:08:30;100522.28;;;13.53;100.00
78671;BME280;68277;52.724;6.516;2023-08-06T02:10:55;100535.09;;;13.65;100.00
78671;BME280;68277;52.724;6.516;2023-08-06T02:13:21;100523.97;;;13.56;100.00
78671;BME280;68277;52.724;6.516;2023-08-06T02:15:46;100522.84;;;13.61;100.00
78671;BME280;68277;52.724;6.516;2023-08-06T02:18:15;100558.47;;;13.79;100.00
78671;BME280;68277;52.724;6.516;2023-08-06T02:20:42;100512.75;;;13.48;100.00
78671;BME280;68277;52.724;6.516;2023-08-06T02:23:08;100511.78;;;13.50;100.00
78671;BME280;68277;52.724;6.516;2023-08-06T02:25:34;100504.03;;;13.44;100.00
78671;BME280;68277;52.724;6.516;2023-08-06T02:28:00;100537.81;;;13.64;100.00
78671;BME280;68277;52.724;6.516;2023-08-06T02:30:25;100527.44;;;13.58;100.00
78671;BME280;68277;52.724;6.516;2023-08-06T02:32:51;100540.25;;;13.70;100.00
78671;BME280;68277;52.724;6.516;2023-08-06T02:35:17;100508.31;;;13.48;100.00
78671;BME280;68277;52.724;6.516;2023-08-06T02:37:44;100507.25;;;13.52;100.00
78671;BME280;68277;52.724;6.516;2023-08-06T02:40:10;100517.66;;;13.58;100.00
78671;BME280;68277;52.724;6.516;2023-08-06T02:42:35;100483.94;;;13.37;100.00
78671;BME280;68277;52.724;6.516;2023-08-06T02:45:01;100502.31;;;13.43;100.00
78671;BME280;68277;52.724;6.516;2023-08-06T02:47:28;100495.31;;;13.41;100.00
78671;BME280;68277;52.724;6.516;2023-08-06T02:49:53;100492.72;;;13.39;100.00
78671;BME280;68277;52.724;6.516;2023-08-06T02:52:19;100480.41;;;13.37;100.00
78671;BME280;68277;52.724;6.516;2023-08-06T02:54:45;100477.88;;;13.34;100.00
78671;BME280;68277;52.724;6.516;2023-08-06T02:57:13;100509.22;;;13.47;100.00
78671;BME280;68277;52.724;6.516;2023-08-06T02:59:38;100491.13;;;13.35;100.00
78671;BME280;68277;52.724;6.516;2023-08-06T03:02:09;100472.75;;;13.29;100.00
78671;BME280;68277;52.724;6.516;2023-08-06T03:04:57;100467.53;;;13.26;100.00
78671;BME280;68277;52.724;6.516;2023-08-06T03:07:26;100466.63;;;13.27;100.00
78671;BME280;68277;52.724;6.516;2023-08-06T03:09:56;100467.53;;;13.26;100.00
78671;BME280;68277;52.724;6.516;2023-08-06T03:12:22;100495.19;;;13.44;100.00
78671;BME280;68277;52.724;6.516;2023-08-06T03:14:48;100465.75;;;13.27;100.00
78671;BME280;68277;52.724;6.516;2023-08-06T03:17:14;100464.78;;;13.29;100.00
78671;BME280;68277;52.724;6.516;2023-08-06T03:19:40;100469.09;;;13.32;100.00
78671;BME280;68277;52.724;6.516;2023-08-06T03:22:06;100457.97;;;13.22;100.00
78671;BME280;68277;52.724;6.516;2023-08-06T03:24:33;100467.53;;;13.26;100.00
78671;BME280;68277;52.724;6.516;2023-08-06T03:26:59;100460.50;;;13.25;100.00
78671;BME280;68277;52.724;6.516;2023-08-06T03:29:25;100476.16;;;13.33;100.00
78671;BME280;68277;52.724;6.516;2023-08-06T03:31:52;100497.66;;;13.48;100.00
78671;BME280;68277;52.724;6.516;2023-08-06T03:34:17;100488.09;;;13.44;100.00
78671;BME280;68277;52.724;6.516;2023-08-06T03:36:44;100468.19;;;13.33;100.00
78671;BME280;68277;52.724;6.516;2023-08-06T03:39:10;100469.78;;;13.37;100.00
78671;BME280;68277;52.724;6.516;2023-08-06T03:41:36;100464.69;;;13.31;100.00
78671;BME280;68277;52.724;6.516;2023-08-06T03:44:01;100456.00;;;13.27;100.00
78671;BME280;68277;52.724;6.516;2023-08-06T03:46:29;100490.59;;;13.47;100.00
78671;BME280;68277;52.724;6.516;2023-08-06T03:48:57;100493.28;;;13.47;100.00
78671;BME280;68277;52.724;6.516;2023-08-06T03:51:25;100456.19;;;13.23;100.00
78671;BME280;68277;52.724;6.516;2023-08-06T03:53:51;100510.78;;;13.53;100.00
78671;BME280;68277;52.724;6.516;2023-08-06T03:56:16;100497.94;;;13.42;100.00
78671;BME280;68277;52.724;6.516;2023-08-06T03:58:42;100477.94;;;13.32;100.00
78671;BME280;68277;52.724;6.516;2023-08-06T04:01:08;100488.41;;;13.37;100.00
78671;BME280;68277;52.724;6.516;2023-08-06T04:03:39;100509.00;;;13.53;100.00
78671;BME280;68277;52.724;6.516;2023-08-06T04:06:06;100509.72;;;13.57;100.00
78671;BME280;68277;52.724;6.516;2023-08-06T04:08:31;100482.03;;;13.41;100.00
78671;BME280;68277;52.724;6.516;2023-08-06T04:10:57;100505.22;;;13.59;100.00
78671;BME280;68277;52.724;6.516;2023-08-06T04:13:22;100478.31;;;13.45;100.00
78671;BME280;68277;52.724;6.516;2023-08-06T04:15:49;100467.94;;;13.39;100.00
78671;BME280;68277;52.724;6.516;2023-08-06T04:18:15;100461.69;;;13.40;100.00
78671;BME280;68277;52.724;6.516;2023-08-06T04:20:45;100475.53;;;13.48;100.00
78671;BME280;68277;52.724;6.516;2023-08-06T04:23:10;100459.69;;;13.45;100.00
78671;BME280;68277;52.724;6.516;2023-08-06T04:25:37;100481.63;;;13.51;100.00
78671;BME280;68277;52.724;6.516;2023-08-06T04:28:03;100465.00;;;13.45;100.00
78671;BME280;68277;52.724;6.516;2023-08-06T04:30:28;100497.19;;;13.60;100.00
78671;BME280;68277;52.724;6.516;2023-08-06T04:32:56;100511.97;;;13.67;100.00
78671;BME280;68277;52.724;6.516;2023-08-06T04:35:24;100495.59;;;13.56;100.00
78671;BME280;68277;52.724;6.516;2023-08-06T04:37:50;100501.53;;;13.63;100.00
78671;BME280;68277;52.724;6.516;2023-08-06T04:40:16;100476.41;;;13.48;100.00
78671;BME280;68277;52.724;6.516;2023-08-06T04:42:42;100512.50;;;13.76;100.00
78671;BME280;68277;52.724;6.516;2023-08-06T04:45:09;100520.56;;;13.74;100.00
78671;BME280;68277;52.724;6.516;2023-08-06T04:47:34;100506.53;;;13.70;100.00
78671;BME280;68277;52.724;6.516;2023-08-06T04:50:00;100486.47;;;13.62;100.00
78671;BME280;68277;52.724;6.516;2023-08-06T04:52:26;100519.31;;;13.83;100.00
78671;BME280;68277;52.724;6.516;2023-08-06T04:54:54;100496.75;;;13.71;100.00
78671;BME280;68277;52.724;6.516;2023-08-06T04:57:19;100469.91;;;13.55;100.00
78671;BME280;68277;52.724;6.516;2023-08-06T04:59:45;100466.19;;;13.59;100.00
78671;BME280;68277;52.724;6.516;2023-08-06T05:02:10;100485.97;;;13.74;100.00
78671;BME280;68277;52.724;6.516;2023-08-06T05:04:36;100492.91;;;13.78;100.00
78671;BME280;68277;52.724;6.516;2023-08-06T05:07:02;100507.38;;;13.93;100.00
78671;BME280;68277;52.724;6.516;2023-08-06T05:09:27;100515.31;;;13.94;100.00
78671;BME280;68277;52.724;6.516;2023-08-06T05:11:53;100501.53;;;13.85;100.00
78671;BME280;68277;52.724;6.516;2023-08-06T05:14:18;100470.22;;;13.69;100.00
78671;BME280;68277;52.724;6.516;2023-08-06T05:16:44;100467.47;;;13.71;100.00
78671;BME280;68277;52.724;6.516;2023-08-06T05:19:09;100510.72;;;13.98;100.00
78671;BME280;68277;52.724;6.516;2023-08-06T05:21:35;100476.91;;;13.80;100.00
78671;BME280;68277;52.724;6.516;2023-08-06T05:24:00;100482.81;;;13.86;100.00
78671;BME280;68277;52.724;6.516;2023-08-06T05:26:25;100511.19;;;14.07;100.00
78671;BME280;68277;52.724;6.516;2023-08-06T05:28:51;100467.84;;;13.84;100.00
78671;BME280;68277;52.724;6.516;2023-08-06T05:31:16;100477.19;;;13.94;100.00
78671;BME280;68277;52.724;6.516;2023-08-06T05:33:42;100501.44;;;14.08;100.00
78671;BME280;68277;52.724;6.516;2023-08-06T05:36:07;100525.41;;;14.28;100.00
78671;BME280;68277;52.724;6.516;2023-08-06T05:38:33;100514.75;;;14.28;100.00
78671;BME280;68277;52.724;6.516;2023-08-06T05:40:58;100492.09;;;14.18;100.00
78671;BME280;68277;52.724;6.516;2023-08-06T05:43:24;100527.50;;;14.42;100.00
78671;BME280;68277;52.724;6.516;2023-08-06T05:45:50;100481.63;;;14.15;100.00
78671;BME280;68277;52.724;6.516;2023-08-06T05:48:16;100494.59;;;14.22;100.00
78671;BME280;68277;52.724;6.516;2023-08-06T05:50:41;100485.75;;;14.22;100.00
78671;BME280;68277;52.724;6.516;2023-08-06T05:53:07;100494.41;;;14.27;100.00
78671;BME280;68277;52.724;6.516;2023-08-06T05:55:33;100538.56;;;14.53;100.00
78671;BME280;68277;52.724;6.516;2023-08-06T05:57:59;100523.13;;;14.41;100.00
78671;BME280;68277;52.724;6.516;2023-08-06T06:00:24;100533.28;;;14.51;100.00
78671;BME280;68277;52.724;6.516;2023-08-06T06:02:50;100508.03;;;14.41;100.00
78671;BME280;68277;52.724;6.516;2023-08-06T06:05:17;100534.91;;;14.55;100.00
78671;BME280;68277;52.724;6.516;2023-08-06T06:07:43;100541.63;;;14.64;100.00
78671;BME280;68277;52.724;6.516;2023-08-06T06:10:09;100513.66;;;14.54;100.00
78671;BME280;68277;52.724;6.516;2023-08-06T06:12:34;100522.38;;;14.57;100.00
78671;BME280;68277;52.724;6.516;2023-08-06T06:15:00;100538.09;;;14.63;100.00
78671;BME280;68277;52.724;6.516;2023-08-06T06:17:27;100533.84;;;14.59;100.00
78671;BME280;68277;52.724;6.516;2023-08-06T06:19:52;100552.81;;;14.72;100.00
78671;BME280;68277;52.724;6.516;2023-08-06T06:22:18;100539.72;;;14.67;100.00
78671;BME280;68277;52.724;6.516;2023-08-06T06:24:43;100501.53;;;14.47;100.00
78671;BME280;68277;52.724;6.516;2023-08-06T06:27:09;100511.00;;;14.54;100.00
78671;BME280;68277;52.724;6.516;2023-08-06T06:29:35;100520.59;;;14.58;100.00
78671;BME280;68277;52.724;6.516;2023-08-06T06:32:01;100533.56;;;14.65;100.00
78671;BME280;68277;52.724;6.516;2023-08-06T06:34:28;100524.56;;;14.68;100.00
78671;BME280;68277;52.724;6.516;2023-08-06T06:36:53;100527.03;;;14.72;100.00
78671;BME280;68277;52.724;6.516;2023-08-06T06:39:22;100534.63;;;14.81;100.00
78671;BME280;68277;52.724;6.516;2023-08-06T06:41:48;100536.56;;;14.78;100.00
78671;BME280;68277;52.724;6.516;2023-08-06T06:44:23;100544.47;;;14.79;100.00
78671;BME280;68277;52.724;6.516;2023-08-06T06:46:48;100565.31;;;14.90;100.00
78671;BME280;68277;52.724;6.516;2023-08-06T06:49:14;100514.19;;;14.62;100.00
78671;BME280;68277;52.724;6.516;2023-08-06T06:51:39;100572.13;;;14.97;100.00
78671;BME280;68277;52.724;6.516;2023-08-06T06:54:04;100550.13;;;14.92;100.00
78671;BME280;68277;52.724;6.516;2023-08-06T06:56:30;100535.00;;;14.92;100.00
78671;BME280;68277;52.724;6.516;2023-08-06T06:58:57;100555.78;;;15.04;100.00
78671;BME280;68277;52.724;6.516;2023-08-06T07:01:22;100534.72;;;14.98;100.00
78671;BME280;68277;52.724;6.516;2023-08-06T07:03:50;100539.78;;;15.04;100.00
78671;BME280;68277;52.724;6.516;2023-08-06T07:06:16;100540.59;;;15.06;100.00
78671;BME280;68277;52.724;6.516;2023-08-06T07:08:44;100569.13;;;15.23;100.00
78671;BME280;68277;52.724;6.516;2023-08-06T07:11:10;100533.50;;;15.05;100.00
78671;BME280;68277;52.724;6.516;2023-08-06T07:13:35;100521.19;;;15.03;100.00
78671;BME280;68277;52.724;6.516;2023-08-06T07:16:01;100571.09;;;15.38;100.00
78671;BME280;68277;52.724;6.516;2023-08-06T07:18:26;100543.41;;;15.22;100.00
78671;BME280;68277;52.724;6.516;2023-08-06T07:20:53;100534.47;;;15.23;100.00
78671;BME280;68277;52.724;6.516;2023-08-06T07:23:24;100578.94;;;15.41;100.00
78671;BME280;68277;52.724;6.516;2023-08-06T07:25:50;100543.34;;;15.24;100.00
78671;BME280;68277;52.724;6.516;2023-08-06T07:28:16;100574.50;;;15.42;100.00
78671;BME280;68277;52.724;6.516;2023-08-06T07:30:43;100573.53;;;15.44;100.00
78671;BME280;68277;52.724;6.516;2023-08-06T07:33:09;100535.69;;;15.16;100.00
78671;BME280;68277;52.724;6.516;2023-08-06T07:35:35;100564.03;;;15.37;100.00
78671;BME280;68277;52.724;6.516;2023-08-06T07:38:01;100580.56;;;15.45;100.00
78671;BME280;68277;52.724;6.516;2023-08-06T07:40:27;100541.41;;;15.27;100.00
78671;BME280;68277;52.724;6.516;2023-08-06T07:42:52;100548.53;;;15.27;100.00
78671;BME280;68277;52.724;6.516;2023-08-06T07:45:18;100544.84;;;15.29;100.00
78671;BME280;68277;52.724;6.516;2023-08-06T07:47:43;100567.22;;;15.45;100.00
78671;BME280;68277;52.724;6.516;2023-08-06T07:50:09;100553.75;;;15.48;100.00
78671;BME280;68277;52.724;6.516;2023-08-06T07:52:35;100583.63;;;15.75;100.00
78671;BME280;68277;52.724;6.516;2023-08-06T07:55:01;100564.50;;;15.65;99.84
78671;BME280;68277;52.724;6.516;2023-08-06T07:57:33;100553.69;;;15.68;99.79
78671;BME280;68277;52.724;6.516;2023-08-06T08:00:00;100561.31;;;15.76;100.00
78671;BME280;68277;52.724;6.516;2023-08-06T08:02:26;100579.34;;;15.90;99.76
78671;BME280;68277;52.724;6.516;2023-08-06T08:04:51;100551.59;;;15.75;100.00
78671;BME280;68277;52.724;6.516;2023-08-06T08:07:17;100549.84;;;15.74;100.00
78671;BME280;68277;52.724;6.516;2023-08-06T08:09:43;100587.06;;;15.96;100.00
78671;BME280;68277;52.724;6.516;2023-08-06T08:12:09;100579.03;;;15.96;99.43
78671;BME280;68277;52.724;6.516;2023-08-06T08:14:34;100563.41;;;15.88;99.55
78671;BME280;68277;52.724;6.516;2023-08-06T08:17:04;100545.59;;;15.89;99.88
78671;BME280;68277;52.724;6.516;2023-08-06T08:19:33;100548.75;;;15.97;99.45
78671;BME280;68277;52.724;6.516;2023-08-06T08:21:59;100579.75;;;16.18;99.33
78671;BME280;68277;52.724;6.516;2023-08-06T08:24:25;100571.94;;;16.13;99.24
78671;BME280;68277;52.724;6.516;2023-08-06T08:26:51;100564.72;;;16.15;99.14
78671;BME280;68277;52.724;6.516;2023-08-06T08:29:17;100576.91;;;16.21;98.71
78671;BME280;68277;52.724;6.516;2023-08-06T08:31:43;100585.16;;;16.33;98.75
78671;BME280;68277;52.724;6.516;2023-08-06T08:34:15;100556.25;;;16.24;98.28
78671;BME280;68277;52.724;6.516;2023-08-06T08:36:41;100534.25;;;16.19;98.73
78671;BME280;68277;52.724;6.516;2023-08-06T08:39:06;100547.41;;;16.41;98.75
78671;BME280;68277;52.724;6.516;2023-08-06T08:41:33;100550.16;;;16.57;97.78
78671;BME280;68277;52.724;6.516;2023-08-06T08:43:59;100539.19;;;16.63;98.35
78671;BME280;68277;52.724;6.516;2023-08-06T08:46:32;100567.91;;;16.92;97.42
78671;BME280;68277;52.724;6.516;2023-08-06T08:48:59;100541.34;;;16.89;97.17
78671;BME280;68277;52.724;6.516;2023-08-06T08:51:29;100555.78;;;17.02;96.48
78671;BME280;68277;52.724;6.516;2023-08-06T08:53:56;100530.34;;;16.95;97.52
78671;BME280;68277;52.724;6.516;2023-08-06T08:56:23;100582.25;;;17.24;97.02
78671;BME280;68277;52.724;6.516;2023-08-06T08:58:49;100578.72;;;17.23;97.36
78671;BME280;68277;52.724;6.516;2023-08-06T09:01:15;100590.44;;;17.21;96.99
78671;BME280;68277;52.724;6.516;2023-08-06T09:03:44;100569.59;;;17.10;97.12
78671;BME280;68277;52.724;6.516;2023-08-06T09:06:11;100554.06;;;17.01;96.52
78671;BME280;68277;52.724;6.516;2023-08-06T09:08:41;100582.97;;;17.10;97.23
78671;BME280;68277;52.724;6.516;2023-08-06T09:11:09;100586.63;;;17.25;97.54
78671;BME280;68277;52.724;6.516;2023-08-06T09:13:37;100566.28;;;17.22;97.09
78671;BME280;68277;52.724;6.516;2023-08-06T09:16:03;100567.16;;;17.38;96.88
78671;BME280;68277;52.724;6.516;2023-08-06T09:18:30;100576.94;;;17.39;96.33
78671;BME280;68277;52.724;6.516;2023-08-06T09:20:56;100584.09;;;17.39;96.84
78671;BME280;68277;52.724;6.516;2023-08-06T09:23:28;100594.63;;;17.59;96.35
78671;BME280;68277;52.724;6.516;2023-08-06T09:25:56;100544.31;;;17.33;95.72
78671;BME280;68277;52.724;6.516;2023-08-06T09:28:22;100600.75;;;17.61;95.78
78671;BME280;68277;52.724;6.516;2023-08-06T09:30:50;100604.56;;;17.72;95.77
78671;BME280;68277;52.724;6.516;2023-08-06T09:33:18;100587.63;;;17.72;95.21
78671;BME280;68277;52.724;6.516;2023-08-06T09:35:45;100600.41;;;17.98;94.89
78671;BME280;68277;52.724;6.516;2023-08-06T09:38:11;100597.84;;;17.97;94.50
78671;BME280;68277;52.724;6.516;2023-08-06T09:40:37;100599.28;;;18.02;94.24
78671;BME280;68277;52.724;6.516;2023-08-06T09:43:03;100572.44;;;18.04;93.72
78671;BME280;68277;52.724;6.516;2023-08-06T09:45:37;100594.78;;;18.34;93.39
78671;BME280;68277;52.724;6.516;2023-08-06T09:48:04;100608.91;;;18.67;91.72
78671;BME280;68277;52.724;6.516;2023-08-06T09:50:35;100606.78;;;18.58;92.91
78671;BME280;68277;52.724;6.516;2023-08-06T09:53:08;100605.13;;;18.56;92.77
78671;BME280;68277;52.724;6.516;2023-08-06T09:55:34;100597.69;;;18.45;92.41
78671;BME280;68277;52.724;6.516;2023-08-06T09:57:59;100608.09;;;18.51;93.01
78671;BME280;68277;52.724;6.516;2023-08-06T10:00:26;100594.59;;;18.53;93.58
78671;BME280;68277;52.724;6.516;2023-08-06T10:02:53;100615.28;;;18.94;90.86
78671;BME280;68277;52.724;6.516;2023-08-06T10:05:22;100585.44;;;19.00;89.63
78671;BME280;68277;52.724;6.516;2023-08-06T10:07:49;100614.97;;;19.29;89.71
78671;BME280;68277;52.724;6.516;2023-08-06T10:10:16;100570.09;;;19.02;89.53
78671;BME280;68277;52.724;6.516;2023-08-06T10:12:48;100580.56;;;19.07;89.50
78671;BME280;68277;52.724;6.516;2023-08-06T10:15:16;100600.09;;;19.23;90.09
78671;BME280;68277;52.724;6.516;2023-08-06T10:17:44;100598.00;;;19.28;90.68
78671;BME280;68277;52.724;6.516;2023-08-06T10:20:11;100598.59;;;19.33;89.03
78671;BME280;68277;52.724;6.516;2023-08-06T10:22:42;100578.25;;;19.29;89.12
78671;BME280;68277;52.724;6.516;2023-08-06T10:25:08;100567.66;;;19.42;87.77
78671;BME280;68277;52.724;6.516;2023-08-06T10:27:53;100592.81;;;19.82;83.04
78671;BME280;68277;52.724;6.516;2023-08-06T10:32:55;100584.53;;;19.99;86.28
78671;BME280;68277;52.724;6.516;2023-08-06T10:40:36;100591.75;;;20.52;84.31
78671;BME280;68277;52.724;6.516;2023-08-06T10:43:03;100609.06;;;20.74;84.38
78671;BME280;68277;52.724;6.516;2023-08-06T10:45:29;100576.47;;;20.79;83.93
78671;BME280;68277;52.724;6.516;2023-08-06T10:47:56;100599.75;;;21.55;83.00
78671;BME280;68277;52.724;6.516;2023-08-06T10:50:25;100600.38;;;21.84;80.86
78671;BME280;68277;52.724;6.516;2023-08-06T10:52:51;100589.09;;;21.66;80.80
78671;BME280;68277;52.724;6.516;2023-08-06T10:55:27;100602.22;;;21.46;74.48
78671;BME280;68277;52.724;6.516;2023-08-06T10:57:53;100598.47;;;21.23;83.17
78671;BME280;68277;52.724;6.516;2023-08-06T11:00:21;100569.50;;;20.89;81.59
78671;BME280;68277;52.724;6.516;2023-08-06T11:02:48;100605.38;;;21.27;80.17
78671;BME280;68277;52.724;6.516;2023-08-06T11:05:14;100573.56;;;21.70;79.86
78671;BME280;68277;52.724;6.516;2023-08-06T11:07:40;100547.06;;;21.64;71.33
78671;BME280;68277;52.724;6.516;2023-08-06T11:10:11;100578.91;;;21.83;77.92
78671;BME280;68277;52.724;6.516;2023-08-06T11:12:37;100590.53;;;21.96;78.85
78671;BME280;68277;52.724;6.516;2023-08-06T11:15:03;100571.72;;;21.83;79.21
78671;BME280;68277;52.724;6.516;2023-08-06T11:17:29;100592.38;;;21.95;72.31
78671;BME280;68277;52.724;6.516;2023-08-06T11:19:55;100558.56;;;21.91;73.93
78671;BME280;68277;52.724;6.516;2023-08-06T11:22:21;100562.00;;;21.80;77.44
78671;BME280;68277;52.724;6.516;2023-08-06T11:24:48;100556.19;;;21.74;78.82
78671;BME280;68277;52.724;6.516;2023-08-06T11:27:15;100550.59;;;21.77;78.74
78671;BME280;68277;52.724;6.516;2023-08-06T11:29:41;100558.22;;;21.96;78.11
78671;BME280;68277;52.724;6.516;2023-08-06T11:32:07;100575.31;;;22.07;70.00
78671;BME280;68277;52.724;6.516;2023-08-06T11:34:33;100531.56;;;22.04;74.99
78671;BME280;68277;52.724;6.516;2023-08-06T11:36:58;100568.81;;;22.57;74.63
78671;BME280;68277;52.724;6.516;2023-08-06T11:39:24;100542.69;;;22.81;72.10
78671;BME280;68277;52.724;6.516;2023-08-06T11:41:50;100540.00;;;22.81;72.98
78671;BME280;68277;52.724;6.516;2023-08-06T11:44:19;100574.44;;;22.78;72.44
78671;BME280;68277;52.724;6.516;2023-08-06T11:46:55;100559.69;;;22.47;72.69
78671;BME280;68277;52.724;6.516;2023-08-06T11:49:47;100558.50;;;22.51;71.72
78671;BME280;68277;52.724;6.516;2023-08-06T11:52:15;100575.06;;;22.81;72.03
78671;BME280;68277;52.724;6.516;2023-08-06T11:54:42;100545.25;;;22.72;72.52
78671;BME280;68277;52.724;6.516;2023-08-06T11:57:09;100533.97;;;22.78;72.14
78671;BME280;68277;52.724;6.516;2023-08-06T11:59:37;100560.50;;;23.06;72.18
78671;BME280;68277;52.724;6.516;2023-08-06T12:02:04;100567.97;;;23.59;70.80
78671;BME280;68277;52.724;6.516;2023-08-06T12:05:04;100566.22;;;23.80;67.05
78671;BME280;68277;52.724;6.516;2023-08-06T12:07:37;100542.63;;;23.27;71.40
78671;BME280;68277;52.724;6.516;2023-08-06T12:10:03;100555.25;;;23.04;67.14
78671;BME280;68277;52.724;6.516;2023-08-06T12:12:29;100560.50;;;23.06;71.53
78671;BME280;68277;52.724;6.516;2023-08-06T12:14:54;100539.91;;;22.94;70.25
78671;BME280;68277;52.724;6.516;2023-08-06T12:17:20;100553.28;;;23.06;69.66
78671;BME280;68277;52.724;6.516;2023-08-06T12:19:46;100555.69;;;22.87;67.45
78671;BME280;68277;52.724;6.516;2023-08-06T12:22:18;100555.09;;;22.60;70.98
78671;BME280;68277;52.724;6.516;2023-08-06T12:24:44;100531.47;;;22.16;72.23
78671;BME280;68277;52.724;6.516;2023-08-06T12:27:11;100529.44;;;21.83;71.68
78671;BME280;68277;52.724;6.516;2023-08-06T12:29:47;100560.63;;;21.75;69.09
78671;BME280;68277;52.724;6.516;2023-08-06T12:32:13;100567.88;;;21.37;72.13
78671;BME280;68277;52.724;6.516;2023-08-06T12:34:41;100569.16;;;20.93;72.89
78671;BME280;68277;52.724;6.516;2023-08-06T12:37:07;100576.44;;;20.66;73.29
78671;BME280;68277;52.724;6.516;2023-08-06T12:39:33;100544.38;;;20.24;74.38
78671;BME280;68277;52.724;6.516;2023-08-06T12:42:00;100546.06;;;19.98;74.73
78671;BME280;68277;52.724;6.516;2023-08-06T12:44:26;100563.97;;;19.85;75.48
78671;BME280;68277;52.724;6.516;2023-08-06T12:46:53;100601.78;;;19.68;75.69
78671;BME280;68277;52.724;6.516;2023-08-06T12:49:19;100586.41;;;19.13;77.07
78671;BME280;68277;52.724;6.516;2023-08-06T12:51:47;100604.25;;;18.85;79.32
78671;BME280;68277;52.724;6.516;2023-08-06T12:54:12;100590.44;;;18.47;79.77
78671;BME280;68277;52.724;6.516;2023-08-06T12:56:38;100618.94;;;18.32;80.68
78671;BME280;68277;52.724;6.516;2023-08-06T12:59:03;100603.00;;;18.15;81.71